Indianapolis, IN

8:17 PM EST on November 19, 2019 (GMT -0500)
Indianapolis Terry

Weather History for KTYQ - June, 2019

Change the Weather History Date:

Monday, June 3, 2019

  Actual Average (KEYE) Record (KEYE)
Temperature  
Mean Temperature 60 °F -  
Max Temperature 73 °F 72 °F 88 °F (2002)
Min Temperature 46 °F 56 °F 46 °F (2013)
Degree Days  
Heating Degree Days 6    
Growing Degree Days 10 (Base 50)    
Moisture  
Dew Point 50 °F    
Average Humidity 72    
Maximum Humidity 100    
Minimum Humidity 42    
Precipitation  
Precipitation 0.00 in - - ()
Sea Level Pressure  
Sea Level Pressure 30.10 in    
Wind  
Wind Speed 1 mph ()    
Max Wind Speed 10 mph    
Max Gust Speed -    
Visibility 10.0 miles    
Events      
Averages and records for this station are not official NWS values.
T = Trace of Precipitation, MM = Missing Value Source: Averaged Metar Reports

Daily Weather History Graph

Daily Weather History Graph

Search for Another Location

Airport or City:

Astronomy

Jun. 03, 2019 Rise Set
Actual Time 6:17 AM EDT 9:09 PM EDT
Civil Twilight 5:45 AM EDT 9:41 PM EDT
Nautical Twilight 5:04 AM EDT 10:22 PM EDT
Astronomical Twilight 4:17 AM EDT 11:09 PM EDT
Moon 6:37 AM EDT (6/3) 9:33 PM EDT (6/3)
Length of Visible Light 15h 56m
Length of Day
14h 51m
New Moon, 0% of the Moon is Illuminated
Jun 3
New Moon
Jun 10
First Quarter
Jun 17
Full
Jun 25
Last Quarter
Jul 2
New

Hourly Weather History & Observations

Time (EDT) Temp. Dew Point Humidity Pressure Visibility Wind Dir Wind Speed Gust Speed Precip Events Conditions
12:15 AM 51.3 °F 49.8 °F 95% 30.02 in 10.0 mi Calm Calm - N/A   Clear
12:35 AM 50.0 °F 48.0 °F 93% 30.02 in 10.0 mi Calm Calm - N/A   Clear
12:55 AM 50.0 °F 50.0 °F 100% 30.03 in 10.0 mi Calm Calm - N/A   Clear
1:15 AM 49.6 °F 48.9 °F 97% 30.03 in 10.0 mi Calm Calm - N/A   Clear
1:35 AM 50.2 °F 47.8 °F 92% 30.03 in 10.0 mi Calm Calm - N/A   Clear
1:55 AM 49.6 °F 49.6 °F 100% 30.03 in 10.0 mi Calm Calm - N/A   Clear
2:15 AM 49.1 °F 49.1 °F 100% 30.03 in 10.0 mi Calm Calm - N/A   Clear
2:35 AM 48.4 °F 48.4 °F 100% 30.03 in 10.0 mi Calm Calm - N/A   Clear
2:55 AM 48.2 °F 48.2 °F 100% 30.02 in 10.0 mi Calm Calm - N/A   Clear
3:15 AM 48.7 °F 48.7 °F 100% 30.03 in 10.0 mi Calm Calm - N/A   Clear
3:35 AM 49.1 °F 49.1 °F 100% 30.03 in 10.0 mi Calm Calm - N/A   Clear
3:55 AM 48.2 °F 48.2 °F 100% 30.04 in 10.0 mi Calm Calm - N/A   Clear
4:15 AM 48.2 °F 48.2 °F 100% 30.04 in 10.0 mi Calm Calm - N/A   Clear
4:35 AM 47.5 °F 47.5 °F 100% 30.05 in 10.0 mi Calm Calm - N/A   Clear
4:55 AM 47.1 °F 47.1 °F 100% 30.05 in 10.0 mi Calm Calm - N/A   Clear
5:15 AM 47.3 °F 47.3 °F 100% 30.06 in 10.0 mi Calm Calm - N/A   Clear
5:35 AM 46.9 °F 46.9 °F 100% 30.06 in 10.0 mi Calm Calm - N/A   Clear
5:55 AM 47.5 °F 47.5 °F 100% 30.06 in 10.0 mi Calm Calm - N/A   Clear
6:15 AM 47.3 °F 47.3 °F 100% 30.07 in 10.0 mi Calm Calm - N/A   Clear
6:35 AM 46.6 °F 46.6 °F 100% 30.08 in 10.0 mi Calm Calm - N/A   Clear
6:55 AM 47.1 °F 47.1 °F 100% 30.09 in 10.0 mi Calm Calm - N/A   Clear
7:15 AM 48.2 °F 48.2 °F 100% 30.10 in 10.0 mi Calm Calm - N/A   Clear
7:35 AM 49.5 °F 49.5 °F 100% 30.10 in 10.0 mi Calm Calm - N/A   Clear
7:55 AM 51.3 °F 51.1 °F 99% 30.11 in 10.0 mi Calm Calm - N/A   Clear
8:15 AM 53.2 °F 52.0 °F 95% 30.11 in 10.0 mi Calm Calm - N/A   Clear
8:35 AM 54.7 °F 52.0 °F 91% 30.12 in 10.0 mi Calm Calm - N/A   Clear
8:55 AM 56.7 °F 50.0 °F 78% 30.13 in 10.0 mi Calm Calm - N/A   Clear
9:15 AM 58.1 °F 47.8 °F 69% 30.14 in 10.0 mi Calm Calm - N/A   Clear
9:35 AM 59.0 °F 47.8 °F 66% 30.15 in 10.0 mi Calm Calm - N/A   Clear
9:55 AM 60.4 °F 46.2 °F 59% 30.15 in 10.0 mi SW 3.5 mph - N/A   Clear
10:15 AM 61.7 °F 44.6 °F 53% 30.15 in 10.0 mi Calm Calm - N/A   Clear
10:35 AM 62.6 °F 46.2 °F 55% 30.15 in 10.0 mi SW 4.6 mph - N/A   Clear
10:55 AM 63.7 °F 44.8 °F 50% 30.15 in 10.0 mi SW 3.5 mph - N/A   Clear
11:15 AM 64.6 °F 45.1 °F 49% 30.15 in 10.0 mi SSW 3.5 mph - N/A   Clear
11:35 AM 65.7 °F 43.5 °F 45% 30.15 in 10.0 mi SW 3.5 mph - N/A   Clear
11:55 AM 66.2 °F 44.8 °F 46% 30.15 in 10.0 mi West 3.5 mph - N/A   Clear
12:15 PM 66.7 °F 44.2 °F 44% 30.14 in 10.0 mi West 3.5 mph - N/A   Clear
12:35 PM 66.6 °F 43.5 °F 43% 30.13 in 10.0 mi Calm Calm - N/A   Clear
12:55 PM 68.0 °F 46.0 °F 45% 30.14 in 10.0 mi WSW 3.5 mph - N/A   Clear
1:15 PM 68.2 °F 46.4 °F 46% 30.14 in 10.0 mi NW 4.6 mph - N/A   Clear
1:35 PM 69.1 °F 47.5 °F 46% 30.13 in 10.0 mi Calm Calm - N/A   Clear
1:55 PM 69.8 °F 47.5 °F 45% 30.13 in 10.0 mi WSW 6.9 mph - N/A   Clear
2:15 PM 70.3 °F 47.7 °F 44% 30.14 in 10.0 mi WSW 4.6 mph - N/A   Clear
2:35 PM 71.6 °F 50.0 °F 46% 30.13 in 10.0 mi WNW 6.9 mph - N/A   Clear
2:55 PM 70.5 °F 48.6 °F 46% 30.13 in 10.0 mi NNW 5.8 mph - N/A   Clear
3:15 PM 71.8 °F 48.4 °F 43% 30.13 in 10.0 mi WNW 10.4 mph - N/A   Clear
3:35 PM 71.6 °F 48.2 °F 43% 30.12 in 10.0 mi Calm Calm - N/A   Clear
3:55 PM 72.1 °F 47.8 °F 42% 30.12 in 10.0 mi West 5.8 mph - N/A   Clear
4:15 PM 72.7 °F 49.8 °F 44% 30.12 in 10.0 mi West 9.2 mph - N/A   Clear
4:35 PM 73.0 °F 49.8 °F 44% 30.11 in 10.0 mi West 4.6 mph - N/A   Clear
4:55 PM 73.2 °F 49.8 °F 44% 30.11 in 10.0 mi Calm Calm - N/A   Clear
5:15 PM 73.6 °F 50.2 °F 44% 30.10 in 10.0 mi West 5.8 mph - N/A   Scattered Clouds
5:35 PM 73.4 °F 50.2 °F 44% 30.11 in 10.0 mi West 5.8 mph - N/A   Clear
5:55 PM 72.7 °F 48.9 °F 43% 30.11 in 10.0 mi WNW 3.5 mph - N/A   Clear
6:15 PM 73.0 °F 49.5 °F 43% 30.10 in 10.0 mi West 6.9 mph - N/A   Clear
6:35 PM 72.7 °F 50.4 °F 45% 30.10 in 10.0 mi WNW 4.6 mph - N/A   Clear
6:55 PM 72.0 °F 50.2 °F 46% 30.09 in 10.0 mi NW 6.9 mph - N/A   Clear
7:15 PM 71.6 °F 49.8 °F 46% 30.09 in 10.0 mi Calm Calm - N/A   Clear
7:35 PM 70.9 °F 52.5 °F 52% 30.09 in 10.0 mi Calm Calm - N/A   Clear
7:55 PM 70.9 °F 52.7 °F 53% 30.09 in 10.0 mi Calm Calm - N/A   Clear
8:15 PM 69.8 °F 53.4 °F 56% 30.09 in 10.0 mi Calm Calm - N/A   Clear
8:35 PM 68.7 °F 56.5 °F 65% 30.09 in 10.0 mi Calm Calm - N/A   Clear
8:55 PM 67.1 °F 59.4 °F 76% 30.09 in 10.0 mi Calm Calm - N/A   Clear
9:15 PM 65.5 °F 56.7 °F 73% 30.09 in 10.0 mi Calm Calm - N/A   Clear
9:35 PM 65.7 °F 55.2 °F 69% 30.10 in 10.0 mi Calm Calm - N/A   Clear
9:55 PM 65.1 °F 54.5 °F 68% 30.10 in 10.0 mi Calm Calm - N/A   Clear
10:15 PM 62.2 °F 57.2 °F 84% 30.11 in 10.0 mi Calm Calm - N/A   Clear
10:35 PM 62.1 °F 56.7 °F 82% 30.11 in 10.0 mi Calm Calm - N/A   Clear
10:55 PM 60.3 °F 58.3 °F 93% 30.11 in 10.0 mi Calm Calm - N/A   Clear
11:15 PM 61.2 °F 58.3 °F 90% 30.11 in 10.0 mi Calm Calm - N/A   Clear
11:35 PM 59.9 °F 59.0 °F 97% 30.12 in 10.0 mi Calm Calm - N/A   Clear
11:55 PM 59.0 °F 58.3 °F 97% 30.12 in 10.0 mi Calm Calm - N/A   Clear